createdAt,value
2019-05-19T00:01:13.528Z,19.50
2019-05-19T00:03:43.662Z,19.50
2019-05-19T00:06:13.844Z,19.50
2019-05-19T00:08:44.130Z,19.50
2019-05-19T00:11:14.513Z,19.50
2019-05-19T00:13:44.719Z,19.50
2019-05-19T00:16:14.874Z,19.50
2019-05-19T00:18:44.998Z,19.50
2019-05-19T00:21:15.385Z,19.50
2019-05-19T00:23:45.534Z,19.50
2019-05-19T00:26:15.659Z,19.50
2019-05-19T00:28:46.043Z,19.50
2019-05-19T00:31:17.471Z,19.50
2019-05-19T00:33:47.553Z,19.50
2019-05-19T00:36:19.639Z,19.50
2019-05-19T00:38:49.993Z,19.50
2019-05-19T00:41:23.038Z,19.50
2019-05-19T00:43:53.182Z,19.50
2019-05-19T00:46:24.426Z,19.40
2019-05-19T00:48:54.551Z,19.40
2019-05-19T00:51:24.691Z,19.50
2019-05-19T00:53:54.910Z,19.40
2019-05-19T00:56:25.411Z,19.40
2019-05-19T00:58:55.607Z,19.40
2019-05-19T01:01:25.907Z,19.40
2019-05-19T01:03:56.220Z,19.40
2019-05-19T01:06:26.716Z,19.40
2019-05-19T01:08:56.868Z,19.40
2019-05-19T01:11:27.175Z,19.40
2019-05-19T01:13:57.382Z,19.40
2019-05-19T01:16:31.829Z,19.40
2019-05-19T01:19:02.974Z,19.40
2019-05-19T01:21:33.082Z,19.40
2019-05-19T01:24:03.247Z,19.40
2019-05-19T01:26:33.369Z,19.40
2019-05-19T01:29:03.512Z,19.40
2019-05-19T01:31:33.699Z,19.40
2019-05-19T01:34:03.792Z,19.30
2019-05-19T01:36:33.946Z,19.40
2019-05-19T01:39:05.032Z,19.40
2019-05-19T01:41:35.190Z,19.30
2019-05-19T01:44:05.311Z,19.30
2019-05-19T01:46:35.460Z,19.30
2019-05-19T01:49:05.588Z,19.30
2019-05-19T01:51:35.717Z,19.40
2019-05-19T01:54:05.847Z,19.30
2019-05-19T01:56:35.977Z,19.40
2019-05-19T01:59:06.104Z,19.30
2019-05-19T02:01:36.243Z,19.40
2019-05-19T02:04:06.380Z,19.30
2019-05-19T02:06:36.522Z,19.30
2019-05-19T02:09:07.569Z,19.30
2019-05-19T02:11:37.701Z,19.30
2019-05-19T02:14:07.846Z,19.30
2019-05-19T02:16:38.031Z,19.30
2019-05-19T02:19:08.174Z,19.30
2019-05-19T02:21:38.392Z,19.30
2019-05-19T02:24:08.524Z,19.30
2019-05-19T02:26:38.652Z,19.30
2019-05-19T02:29:08.781Z,19.30
2019-05-19T02:31:38.916Z,19.30
2019-05-19T02:34:09.045Z,19.30
2019-05-19T02:36:39.191Z,19.30
2019-05-19T02:39:09.317Z,19.30
2019-05-19T02:41:39.476Z,19.30
2019-05-19T02:44:09.615Z,19.30
2019-05-19T02:46:39.833Z,19.30
2019-05-19T02:49:10.425Z,19.30
2019-05-19T02:51:41.407Z,19.30
2019-05-19T02:54:11.819Z,19.20
2019-05-19T02:56:42.782Z,19.20
2019-05-19T02:59:13.728Z,19.20
2019-05-19T03:02:03.874Z,19.20
2019-05-19T03:04:33.998Z,19.20
2019-05-19T03:07:04.096Z,19.20
2019-05-19T03:09:34.231Z,19.20
2019-05-19T03:12:04.352Z,19.30
2019-05-19T03:14:34.483Z,19.20
2019-05-19T03:17:04.622Z,19.20
2019-05-19T03:19:34.749Z,19.20
2019-05-19T03:22:04.895Z,19.20
2019-05-19T03:24:35.114Z,19.20
2019-05-19T03:27:05.281Z,19.20
2019-05-19T03:29:37.038Z,19.20
2019-05-19T03:32:12.476Z,19.20
2019-05-19T03:34:40.655Z,19.20
2019-05-19T03:37:11.840Z,19.20
2019-05-19T03:39:41.981Z,19.20
2019-05-19T03:42:13.173Z,19.20
2019-05-19T03:44:43.372Z,19.20
2019-05-19T03:47:13.512Z,19.20
2019-05-19T03:49:43.634Z,19.20
2019-05-19T03:52:13.947Z,19.20
2019-05-19T03:54:44.131Z,19.20
2019-05-19T03:57:14.364Z,19.20
2019-05-19T03:59:47.083Z,19.20
2019-05-19T04:02:17.224Z,19.20
2019-05-19T04:04:47.360Z,19.10
2019-05-19T04:07:17.569Z,19.10
2019-05-19T04:09:47.717Z,19.20
2019-05-19T04:12:17.975Z,19.20
2019-05-19T04:14:48.265Z,19.20
2019-05-19T04:17:18.476Z,19.10
2019-05-19T04:19:48.721Z,19.20
2019-05-19T04:22:19.073Z,19.10
2019-05-19T04:24:49.333Z,19.10
2019-05-19T04:27:19.489Z,19.10
2019-05-19T04:29:49.608Z,19.10
2019-05-19T04:32:19.814Z,19.10
2019-05-19T04:34:50.056Z,19.10
2019-05-19T04:37:20.217Z,19.10
2019-05-19T04:39:50.406Z,19.10
2019-05-19T04:42:20.546Z,19.10
2019-05-19T04:44:50.686Z,19.10
2019-05-19T04:47:20.871Z,19.10
2019-05-19T04:49:50.962Z,19.10
2019-05-19T04:52:21.087Z,19.10
2019-05-19T04:54:51.212Z,19.10
2019-05-19T04:57:21.350Z,19.10
2019-05-19T04:59:51.480Z,19.10
2019-05-19T05:02:21.622Z,19.10
2019-05-19T05:04:51.751Z,19.10
2019-05-19T05:07:21.895Z,19.10
2019-05-19T05:09:52.025Z,19.10
2019-05-19T05:12:22.162Z,19.10
2019-05-19T05:14:52.286Z,19.10
2019-05-19T05:17:22.445Z,19.10
2019-05-19T05:19:52.567Z,19.10
2019-05-19T05:22:22.786Z,19.20
2019-05-19T05:24:52.920Z,19.20
2019-05-19T05:27:23.060Z,19.30
2019-05-19T05:29:53.196Z,19.30
2019-05-19T05:32:23.330Z,19.30
2019-05-19T05:34:53.491Z,19.30
2019-05-19T05:37:23.616Z,19.30
2019-05-19T05:39:53.755Z,19.30
2019-05-19T05:42:23.874Z,19.30
2019-05-19T05:44:54.033Z,19.30
2019-05-19T05:47:24.175Z,19.30
2019-05-19T05:49:54.310Z,19.30
2019-05-19T05:52:37.472Z,19.40
2019-05-19T05:54:56.622Z,19.40
2019-05-19T05:57:26.760Z,19.40
2019-05-19T05:59:56.890Z,19.40
2019-05-19T06:02:27.021Z,19.40
2019-05-19T06:04:57.256Z,19.50
2019-05-19T06:07:27.398Z,19.50
2019-05-19T06:09:57.534Z,19.50
2019-05-19T06:12:27.669Z,19.50
2019-05-19T06:14:57.822Z,19.50
2019-05-19T06:17:27.950Z,19.60
2019-05-19T06:19:58.135Z,19.60
2019-05-19T06:22:28.286Z,19.60
2019-05-19T06:24:59.197Z,19.50
2019-05-19T06:27:29.497Z,19.50
2019-05-19T06:29:59.646Z,19.50
2019-05-19T06:32:32.499Z,19.50
2019-05-19T06:35:02.956Z,19.50
2019-05-19T06:37:33.210Z,19.50
2019-05-19T06:40:04.377Z,19.50
2019-05-19T06:42:34.607Z,19.50
2019-05-19T06:45:05.364Z,19.50
2019-05-19T06:47:35.510Z,19.50
2019-05-19T06:50:09.715Z,19.50
2019-05-19T06:52:39.848Z,19.50
2019-05-19T06:55:10.046Z,19.50
2019-05-19T06:57:40.186Z,19.50
2019-05-19T07:00:11.286Z,19.50
2019-05-19T07:02:41.605Z,19.50
2019-05-19T07:05:11.992Z,19.50
2019-05-19T07:07:42.694Z,19.60
2019-05-19T07:10:13.018Z,19.60
2019-05-19T07:12:43.174Z,19.60
2019-05-19T07:15:13.403Z,19.60
2019-05-19T07:17:43.535Z,19.60
2019-05-19T07:20:13.944Z,19.60
2019-05-19T07:22:45.093Z,19.60
2019-05-19T07:25:15.265Z,19.70
2019-05-19T07:27:45.726Z,19.70
2019-05-19T07:30:15.863Z,19.70
2019-05-19T07:32:45.991Z,19.70
2019-05-19T07:35:16.135Z,19.70
2019-05-19T07:37:46.331Z,19.70
2019-05-19T07:40:16.469Z,19.70
2019-05-19T07:42:46.615Z,19.70
2019-05-19T07:45:16.813Z,19.70
2019-05-19T07:47:47.000Z,19.70
2019-05-19T07:50:17.126Z,19.70
2019-05-19T07:52:47.335Z,19.70
2019-05-19T07:55:17.461Z,19.70
2019-05-19T07:57:47.590Z,19.70
2019-05-19T08:00:17.734Z,19.70
2019-05-19T08:02:47.866Z,19.70
2019-05-19T08:05:18.025Z,19.70
2019-05-19T08:07:48.159Z,19.70
2019-05-19T08:10:18.323Z,19.70
2019-05-19T08:12:48.448Z,19.70
2019-05-19T08:15:18.865Z,19.70
2019-05-19T08:17:48.993Z,19.70
2019-05-19T08:20:19.137Z,19.70
2019-05-19T08:22:51.300Z,19.70
2019-05-19T08:25:22.105Z,19.80
2019-05-19T08:27:52.242Z,19.80
2019-05-19T08:30:22.382Z,19.80
2019-05-19T08:32:52.518Z,19.80
2019-05-19T08:35:22.916Z,19.80
2019-05-19T08:37:53.047Z,19.80
2019-05-19T08:40:23.198Z,19.80
2019-05-19T08:42:53.358Z,19.80
2019-05-19T08:45:23.485Z,19.80
2019-05-19T08:47:53.622Z,19.90
2019-05-19T08:50:24.718Z,19.90
2019-05-19T08:52:54.881Z,20.00
2019-05-19T08:55:25.047Z,20.00
2019-05-19T08:57:55.205Z,20.00
2019-05-19T09:00:25.443Z,20.00
2019-05-19T09:02:56.599Z,20.00
2019-05-19T09:05:26.747Z,20.00
2019-05-19T09:07:57.965Z,20.00
2019-05-19T09:10:29.105Z,20.00
2019-05-19T09:12:59.355Z,20.00
2019-05-19T09:15:29.486Z,20.00
2019-05-19T09:17:59.612Z,19.90
2019-05-19T09:20:29.744Z,19.90
2019-05-19T09:22:59.877Z,19.90
2019-05-19T09:25:30.021Z,19.80
2019-05-19T09:28:00.148Z,19.80
2019-05-19T09:30:30.304Z,19.80
2019-05-19T09:33:00.440Z,19.90
2019-05-19T09:35:30.595Z,19.80
2019-05-19T09:38:00.887Z,19.80
2019-05-19T09:40:31.053Z,19.80
2019-05-19T09:43:01.184Z,19.80
2019-05-19T09:45:31.535Z,19.80
2019-05-19T09:48:06.076Z,19.80
2019-05-19T09:50:36.208Z,19.80
2019-05-19T09:53:06.350Z,19.80
2019-05-19T09:55:36.473Z,19.80
2019-05-19T09:58:06.618Z,19.80
2019-05-19T10:00:36.850Z,19.80
2019-05-19T10:03:06.960Z,19.80
2019-05-19T10:05:37.147Z,19.80
2019-05-19T10:08:07.241Z,19.80
2019-05-19T10:10:48.859Z,19.80
2019-05-19T10:13:19.009Z,19.90
2019-05-19T10:15:49.404Z,19.90
2019-05-19T10:18:19.533Z,19.90
2019-05-19T10:20:50.493Z,19.90
2019-05-19T10:23:20.738Z,19.90
2019-05-19T10:25:50.852Z,19.90
2019-05-19T10:28:21.064Z,20.00
2019-05-19T10:30:51.235Z,20.00
2019-05-19T10:33:21.330Z,20.00
2019-05-19T10:35:51.521Z,20.00
2019-05-19T10:38:21.665Z,20.00
2019-05-19T10:40:51.793Z,20.00
2019-05-19T10:43:21.932Z,20.00
2019-05-19T10:45:53.698Z,20.10
2019-05-19T10:48:23.999Z,20.10
2019-05-19T10:50:54.164Z,20.10
2019-05-19T10:53:24.400Z,20.10
2019-05-19T10:55:54.562Z,20.10
2019-05-19T10:58:24.719Z,20.10
2019-05-19T11:00:54.840Z,20.20
2019-05-19T11:03:25.019Z,20.20
2019-05-19T11:05:56.213Z,20.20
2019-05-19T11:08:26.347Z,20.20
2019-05-19T11:10:56.505Z,20.20
2019-05-19T11:13:26.622Z,20.20
2019-05-19T11:15:56.759Z,20.20
2019-05-19T11:18:26.963Z,20.20
2019-05-19T11:20:57.090Z,20.20
2019-05-19T11:23:27.304Z,20.20
2019-05-19T11:25:57.526Z,20.20
2019-05-19T11:28:27.740Z,20.20
2019-05-19T11:30:57.870Z,20.20
2019-05-19T11:33:28.012Z,20.20
2019-05-19T11:35:58.122Z,20.20
2019-05-19T11:38:28.294Z,20.20
2019-05-19T11:40:58.570Z,20.20
2019-05-19T11:43:29.798Z,20.20
2019-05-19T11:45:59.917Z,20.20
2019-05-19T11:48:30.227Z,20.20
2019-05-19T11:51:00.355Z,20.20
2019-05-19T11:53:31.464Z,20.20
2019-05-19T11:56:06.685Z,20.20
2019-05-19T11:58:33.539Z,20.30
2019-05-19T12:01:03.668Z,20.30
2019-05-19T12:03:34.562Z,20.30
2019-05-19T12:06:04.699Z,20.30
2019-05-19T12:08:34.844Z,20.30
2019-05-19T12:11:04.971Z,20.30
2019-05-19T12:13:35.281Z,20.30
2019-05-19T12:16:05.457Z,20.30
2019-05-19T12:18:35.588Z,20.30
2019-05-19T12:21:05.738Z,20.30
2019-05-19T12:23:35.854Z,20.30
2019-05-19T12:26:21.996Z,20.30
2019-05-19T12:28:37.831Z,20.30
2019-05-19T12:31:08.874Z,20.30
2019-05-19T12:33:51.032Z,20.30
2019-05-19T12:36:11.008Z,20.40
2019-05-19T12:38:41.288Z,20.40
2019-05-19T12:41:11.429Z,20.40
2019-05-19T12:43:41.577Z,20.50
2019-05-19T12:46:16.569Z,20.50
2019-05-19T12:48:43.709Z,20.60
2019-05-19T12:51:13.834Z,20.60
2019-05-19T12:53:43.970Z,20.50
2019-05-19T12:56:14.102Z,20.60
2019-05-19T12:58:44.319Z,20.60
2019-05-19T13:01:14.465Z,20.60
2019-05-19T13:03:44.787Z,20.60
2019-05-19T13:06:15.004Z,20.60
2019-05-19T13:08:45.131Z,20.60
2019-05-19T13:11:15.260Z,20.60
2019-05-19T13:13:45.408Z,20.60
2019-05-19T13:16:15.806Z,20.60
2019-05-19T13:18:46.009Z,20.50
2019-05-19T13:21:16.146Z,20.50
2019-05-19T13:23:46.348Z,20.60
2019-05-19T13:26:16.484Z,20.60
2019-05-19T13:28:46.623Z,20.60
2019-05-19T13:31:16.759Z,20.70
2019-05-19T13:33:46.919Z,20.60
2019-05-19T13:36:17.039Z,20.50
2019-05-19T13:38:47.185Z,20.30
2019-05-19T13:41:17.321Z,20.20
2019-05-19T13:43:47.448Z,20.20
2019-05-19T13:46:17.589Z,20.20
2019-05-19T13:48:47.740Z,20.20
2019-05-19T13:51:17.885Z,20.20
2019-05-19T13:53:48.941Z,20.20
2019-05-19T13:56:19.066Z,20.10
2019-05-19T13:58:49.202Z,20.10
2019-05-19T14:01:28.084Z,20.10
2019-05-19T14:03:52.276Z,20.10
2019-05-19T14:06:22.536Z,20.30
2019-05-19T14:08:52.660Z,20.40
2019-05-19T14:11:22.793Z,20.40
2019-05-19T14:13:53.857Z,20.50
2019-05-19T14:16:24.031Z,20.60
2019-05-19T14:18:54.143Z,20.60
2019-05-19T14:21:24.364Z,20.70
2019-05-19T14:23:54.443Z,20.80
2019-05-19T14:26:25.597Z,20.90
2019-05-19T14:28:55.722Z,20.90
2019-05-19T14:31:26.066Z,20.80
2019-05-19T14:33:56.303Z,20.90
2019-05-19T14:36:26.437Z,20.90
2019-05-19T14:39:05.507Z,21.00
2019-05-19T14:41:35.731Z,21.10
2019-05-19T14:44:06.046Z,21.00
2019-05-19T14:46:36.224Z,20.90
2019-05-19T14:49:06.364Z,21.00
2019-05-19T14:51:36.558Z,21.10
2019-05-19T14:54:06.703Z,21.10
2019-05-19T14:56:36.858Z,21.10
2019-05-19T14:59:07.189Z,21.20
2019-05-19T15:01:37.335Z,21.20
2019-05-19T15:04:07.531Z,21.10
2019-05-19T15:06:39.243Z,21.10
2019-05-19T15:09:09.786Z,21.20
2019-05-19T15:11:40.254Z,21.20
2019-05-19T15:14:10.389Z,21.30
2019-05-19T15:16:40.515Z,21.20
2019-05-19T15:19:10.645Z,21.30
2019-05-19T15:21:40.783Z,21.30
2019-05-19T15:24:10.907Z,21.20
2019-05-19T15:26:41.047Z,21.20
2019-05-19T15:29:11.361Z,21.30
2019-05-19T15:31:41.496Z,21.30
2019-05-19T15:34:12.711Z,21.20
2019-05-19T15:36:42.962Z,21.30
2019-05-19T15:39:14.655Z,21.30
2019-05-19T15:41:44.875Z,21.30
2019-05-19T15:44:14.960Z,21.30
2019-05-19T15:46:45.090Z,21.30
2019-05-19T15:49:15.412Z,21.40
2019-05-19T15:52:00.500Z,21.40
2019-05-19T15:54:17.449Z,21.40
2019-05-19T15:56:47.578Z,21.40
2019-05-19T15:59:17.711Z,21.30
2019-05-19T16:01:47.843Z,21.30
2019-05-19T16:04:17.972Z,21.40
2019-05-19T16:06:48.103Z,21.40
2019-05-19T16:09:18.249Z,21.40
2019-05-19T16:11:48.769Z,21.40
2019-05-19T16:14:18.848Z,21.40
2019-05-19T16:16:48.995Z,21.40
2019-05-19T16:19:19.132Z,21.40
2019-05-19T16:21:49.394Z,21.40
2019-05-19T16:24:19.592Z,21.40
2019-05-19T16:26:49.722Z,21.40
2019-05-19T16:29:19.849Z,21.30
2019-05-19T16:31:49.984Z,21.30
2019-05-19T16:34:20.112Z,21.30
2019-05-19T16:36:50.251Z,21.30
2019-05-19T16:39:20.374Z,21.30
2019-05-19T16:41:50.511Z,21.30
2019-05-19T16:44:21.741Z,21.30
2019-05-19T16:46:51.913Z,21.30
2019-05-19T16:49:22.089Z,21.30
2019-05-19T16:51:52.368Z,21.30
2019-05-19T16:54:25.107Z,21.30
2019-05-19T16:56:55.247Z,21.30
2019-05-19T16:59:25.375Z,21.30
2019-05-19T17:01:55.504Z,21.30
2019-05-19T17:04:25.651Z,21.20
2019-05-19T17:06:55.773Z,21.20
2019-05-19T17:09:25.902Z,21.20
2019-05-19T17:11:56.049Z,21.20
2019-05-19T17:14:26.249Z,21.20
2019-05-19T17:16:56.396Z,21.20
2019-05-19T17:19:26.528Z,21.10
2019-05-19T17:21:56.657Z,21.20
2019-05-19T17:24:26.777Z,21.10
2019-05-19T17:26:56.924Z,21.10
2019-05-19T17:29:27.060Z,21.10
2019-05-19T17:32:05.682Z,21.10
2019-05-19T17:34:29.037Z,21.00
2019-05-19T17:36:59.184Z,21.10
2019-05-19T17:39:29.423Z,21.10
2019-05-19T17:41:59.590Z,21.10
2019-05-19T17:44:29.723Z,21.00
2019-05-19T17:46:59.904Z,21.00
2019-05-19T17:49:30.139Z,21.00
2019-05-19T17:52:00.416Z,21.00
2019-05-19T17:54:30.591Z,21.00
2019-05-19T17:57:01.016Z,21.00
2019-05-19T17:59:31.853Z,21.00
2019-05-19T18:02:01.996Z,21.00
2019-05-19T18:04:32.122Z,20.90
2019-05-19T18:07:02.253Z,21.00
2019-05-19T18:09:32.400Z,21.00
2019-05-19T18:12:02.528Z,20.90
2019-05-19T18:14:32.662Z,20.90
2019-05-19T18:17:03.213Z,20.90
2019-05-19T18:19:33.357Z,20.90
2019-05-19T18:22:03.489Z,20.90
2019-05-19T18:24:33.643Z,20.90
2019-05-19T18:27:03.934Z,20.90
2019-05-19T18:29:34.111Z,21.00
2019-05-19T18:32:04.241Z,20.90
2019-05-19T18:34:35.549Z,21.00
2019-05-19T18:37:05.671Z,20.90
2019-05-19T18:39:35.814Z,21.00
2019-05-19T18:42:06.920Z,21.00
2019-05-19T18:44:37.067Z,21.00
2019-05-19T18:47:07.188Z,21.00
2019-05-19T18:49:37.331Z,21.00
2019-05-19T18:52:07.473Z,21.00
2019-05-19T18:54:37.592Z,20.90
2019-05-19T18:57:07.715Z,21.00
2019-05-19T18:59:47.019Z,20.90
2019-05-19T19:02:10.830Z,20.90
2019-05-19T19:04:41.230Z,20.90
2019-05-19T19:07:11.424Z,20.90
2019-05-19T19:09:41.561Z,20.90
2019-05-19T19:12:11.758Z,20.90
2019-05-19T19:14:41.902Z,20.90
2019-05-19T19:17:12.032Z,20.90
2019-05-19T19:19:42.169Z,20.90
2019-05-19T19:22:12.296Z,20.90
2019-05-19T19:24:42.448Z,20.90
2019-05-19T19:27:12.597Z,20.80
2019-05-19T19:29:42.814Z,20.80
2019-05-19T19:32:12.950Z,20.80
2019-05-19T19:34:43.169Z,20.80
2019-05-19T19:37:13.305Z,20.80
2019-05-19T19:39:43.475Z,20.80
2019-05-19T19:42:13.881Z,20.80
2019-05-19T19:44:44.016Z,20.80
2019-05-19T19:47:14.485Z,20.80
2019-05-19T19:49:44.624Z,20.80
2019-05-19T19:52:14.754Z,20.80
2019-05-19T19:54:44.895Z,20.80
2019-05-19T19:57:15.013Z,20.80
2019-05-19T19:59:45.151Z,20.80
2019-05-19T20:02:15.581Z,20.80
2019-05-19T20:04:45.956Z,20.80
2019-05-19T20:07:16.084Z,20.80
2019-05-19T20:09:47.477Z,20.80
2019-05-19T20:12:17.603Z,20.80
2019-05-19T20:14:47.804Z,20.80
2019-05-19T20:17:17.977Z,20.80
2019-05-19T20:19:48.387Z,20.80
2019-05-19T20:22:18.636Z,20.80
2019-05-19T20:24:49.917Z,20.80
2019-05-19T20:27:20.236Z,20.80
2019-05-19T20:29:50.399Z,20.80
2019-05-19T20:32:20.674Z,20.80
2019-05-19T20:34:51.094Z,20.80
2019-05-19T20:37:21.518Z,20.70
2019-05-19T20:39:51.681Z,20.80
2019-05-19T20:42:21.923Z,20.80
2019-05-19T20:44:52.169Z,20.80
2019-05-19T20:47:23.326Z,20.80
2019-05-19T20:49:53.596Z,20.80
2019-05-19T20:52:23.991Z,20.80
2019-05-19T20:54:54.592Z,20.80
2019-05-19T20:57:24.774Z,20.80
2019-05-19T20:59:55.325Z,20.80
2019-05-19T21:02:25.451Z,20.80
2019-05-19T21:04:55.602Z,20.80
2019-05-19T21:07:25.747Z,20.80
2019-05-19T21:09:55.898Z,20.70
2019-05-19T21:12:26.032Z,20.70
2019-05-19T21:14:56.189Z,20.70
2019-05-19T21:17:26.321Z,20.70
2019-05-19T21:19:56.545Z,20.70
2019-05-19T21:22:26.675Z,20.70
2019-05-19T21:24:56.830Z,20.70
2019-05-19T21:27:26.952Z,20.70
2019-05-19T21:29:57.475Z,20.70
2019-05-19T21:32:27.614Z,20.60
2019-05-19T21:34:57.784Z,20.60
2019-05-19T21:37:28.998Z,20.60
2019-05-19T21:39:59.313Z,20.60
2019-05-19T21:42:30.394Z,20.60
2019-05-19T21:45:01.646Z,20.60
2019-05-19T21:47:32.009Z,20.50
2019-05-19T21:50:02.497Z,20.60
2019-05-19T21:52:32.778Z,20.60
2019-05-19T21:55:03.286Z,20.60
2019-05-19T21:57:33.430Z,20.60
2019-05-19T22:00:04.213Z,20.50
2019-05-19T22:02:36.200Z,20.50
2019-05-19T22:05:06.493Z,20.50
2019-05-19T22:07:44.350Z,20.50
2019-05-19T22:10:14.541Z,20.50
2019-05-19T22:12:44.767Z,20.50
2019-05-19T22:15:15.013Z,20.50
2019-05-19T22:17:45.343Z,20.50
2019-05-19T22:20:15.496Z,20.50
2019-05-19T22:22:45.712Z,20.50
2019-05-19T22:25:15.908Z,20.50
2019-05-19T22:27:46.048Z,20.50
2019-05-19T22:30:16.237Z,20.50
2019-05-19T22:32:46.374Z,20.40
2019-05-19T22:35:16.503Z,20.40
2019-05-19T22:37:46.852Z,20.40
2019-05-19T22:40:17.277Z,20.40
2019-05-19T22:42:47.420Z,20.40
2019-05-19T22:45:17.703Z,20.40
2019-05-19T22:47:48.112Z,20.40
2019-05-19T22:50:18.511Z,20.40
2019-05-19T22:52:48.659Z,20.40
2019-05-19T22:55:18.788Z,20.40
2019-05-19T22:57:48.925Z,20.40
2019-05-19T23:00:19.491Z,20.30
2019-05-19T23:02:52.624Z,20.30
2019-05-19T23:05:22.828Z,20.30
2019-05-19T23:07:52.957Z,20.30
2019-05-19T23:10:23.658Z,20.30
2019-05-19T23:12:54.790Z,20.30
2019-05-19T23:15:24.907Z,20.30
2019-05-19T23:17:55.130Z,20.30
2019-05-19T23:20:25.273Z,20.30
2019-05-19T23:22:55.400Z,20.30
2019-05-19T23:25:27.159Z,20.30
2019-05-19T23:27:57.333Z,20.30
2019-05-19T23:30:27.469Z,20.30
2019-05-19T23:32:57.603Z,20.30
2019-05-19T23:35:27.841Z,20.30
2019-05-19T23:37:57.977Z,20.30
2019-05-19T23:40:28.107Z,20.30
2019-05-19T23:42:59.878Z,20.30
2019-05-19T23:45:30.014Z,20.30
2019-05-19T23:48:00.151Z,20.30
2019-05-19T23:50:30.282Z,20.30
2019-05-19T23:53:00.415Z,20.20
2019-05-19T23:55:30.739Z,20.20
2019-05-19T23:58:00.927Z,20.20
